sensor_id;sensor_type;location;lat;lon;timestamp;P1;durP1;ratioP1;P2;durP2;ratioP2
86001;SDS011;76581;51.988;5.854;2024-03-25T00:00:11;12.30;;;1.35;;
86001;SDS011;76581;51.988;5.854;2024-03-25T00:01:13;11.47;;;1.27;;
86001;SDS011;76581;51.988;5.854;2024-03-25T00:02:13;9.63;;;1.50;;
86001;SDS011;76581;51.988;5.854;2024-03-25T00:03:14;16.73;;;1.40;;
86001;SDS011;76581;51.988;5.854;2024-03-25T00:04:15;11.07;;;1.53;;
86001;SDS011;76581;51.988;5.854;2024-03-25T00:05:15;14.75;;;1.75;;
86001;SDS011;76581;51.988;5.854;2024-03-25T00:06:22;14.83;;;1.60;;
86001;SDS011;76581;51.988;5.854;2024-03-25T00:07:23;12.32;;;1.20;;
86001;SDS011;76581;51.988;5.854;2024-03-25T00:08:23;16.90;;;1.67;;
86001;SDS011;76581;51.988;5.854;2024-03-25T00:09:24;17.98;;;1.35;;
86001;SDS011;76581;51.988;5.854;2024-03-25T00:10:24;16.67;;;2.07;;
86001;SDS011;76581;51.988;5.854;2024-03-25T00:11:25;13.18;;;2.00;;
86001;SDS011;76581;51.988;5.854;2024-03-25T00:12:26;18.80;;;1.90;;
86001;SDS011;76581;51.988;5.854;2024-03-25T00:13:26;13.57;;;1.42;;
86001;SDS011;76581;51.988;5.854;2024-03-25T00:14:27;10.97;;;1.50;;
86001;SDS011;76581;51.988;5.854;2024-03-25T00:15:27;11.23;;;1.25;;
86001;SDS011;76581;51.988;5.854;2024-03-25T00:16:28;11.97;;;1.63;;
86001;SDS011;76581;51.988;5.854;2024-03-25T00:17:28;10.43;;;1.40;;
86001;SDS011;76581;51.988;5.854;2024-03-25T00:18:29;13.68;;;1.77;;
86001;SDS011;76581;51.988;5.854;2024-03-25T00:19:29;15.27;;;1.87;;
86001;SDS011;76581;51.988;5.854;2024-03-25T00:20:31;9.52;;;1.25;;
86001;SDS011;76581;51.988;5.854;2024-03-25T00:21:31;14.60;;;2.00;;
86001;SDS011;76581;51.988;5.854;2024-03-25T00:22:32;12.73;;;1.58;;
86001;SDS011;76581;51.988;5.854;2024-03-25T00:23:32;13.10;;;2.13;;
86001;SDS011;76581;51.988;5.854;2024-03-25T00:24:33;17.05;;;2.75;;
86001;SDS011;76581;51.988;5.854;2024-03-25T00:25:33;12.37;;;3.30;;
86001;SDS011;76581;51.988;5.854;2024-03-25T00:26:34;11.13;;;1.52;;
86001;SDS011;76581;51.988;5.854;2024-03-25T00:27:34;13.48;;;2.25;;
86001;SDS011;76581;51.988;5.854;2024-03-25T00:28:35;16.00;;;1.60;;
86001;SDS011;76581;51.988;5.854;2024-03-25T00:29:37;11.48;;;2.00;;
86001;SDS011;76581;51.988;5.854;2024-03-25T00:30:37;16.63;;;1.48;;
86001;SDS011;76581;51.988;5.854;2024-03-25T00:31:38;13.43;;;1.13;;
86001;SDS011;76581;51.988;5.854;2024-03-25T00:32:38;14.65;;;1.80;;
86001;SDS011;76581;51.988;5.854;2024-03-25T00:33:39;15.02;;;1.70;;
86001;SDS011;76581;51.988;5.854;2024-03-25T00:34:39;15.53;;;1.17;;
86001;SDS011;76581;51.988;5.854;2024-03-25T00:35:40;12.00;;;1.30;;
86001;SDS011;76581;51.988;5.854;2024-03-25T00:36:40;12.27;;;1.67;;
86001;SDS011;76581;51.988;5.854;2024-03-25T00:37:41;14.25;;;1.30;;
86001;SDS011;76581;51.988;5.854;2024-03-25T00:38:41;15.43;;;1.40;;
86001;SDS011;76581;51.988;5.854;2024-03-25T00:39:43;17.17;;;1.48;;
86001;SDS011;76581;51.988;5.854;2024-03-25T00:40:43;12.20;;;1.33;;
86001;SDS011;76581;51.988;5.854;2024-03-25T00:41:44;15.80;;;1.52;;
86001;SDS011;76581;51.988;5.854;2024-03-25T00:42:44;10.97;;;2.03;;
86001;SDS011;76581;51.988;5.854;2024-03-25T00:43:46;18.25;;;1.88;;
86001;SDS011;76581;51.988;5.854;2024-03-25T00:44:46;9.63;;;1.83;;
86001;SDS011;76581;51.988;5.854;2024-03-25T00:45:47;15.05;;;1.98;;
86001;SDS011;76581;51.988;5.854;2024-03-25T00:46:47;10.40;;;1.30;;
86001;SDS011;76581;51.988;5.854;2024-03-25T00:47:48;9.98;;;1.10;;
86001;SDS011;76581;51.988;5.854;2024-03-25T00:48:49;15.50;;;1.63;;
86001;SDS011;76581;51.988;5.854;2024-03-25T00:49:49;13.40;;;1.40;;
86001;SDS011;76581;51.988;5.854;2024-03-25T00:50:50;8.18;;;1.17;;
86001;SDS011;76581;51.988;5.854;2024-03-25T00:51:50;8.90;;;1.50;;
86001;SDS011;76581;51.988;5.854;2024-03-25T00:52:51;13.65;;;1.63;;
86001;SDS011;76581;51.988;5.854;2024-03-25T00:53:52;11.77;;;1.20;;
86001;SDS011;76581;51.988;5.854;2024-03-25T00:54:52;13.63;;;1.98;;
86001;SDS011;76581;51.988;5.854;2024-03-25T00:55:53;11.97;;;1.27;;
86001;SDS011;76581;51.988;5.854;2024-03-25T00:56:53;9.50;;;1.15;;
86001;SDS011;76581;51.988;5.854;2024-03-25T00:57:54;12.93;;;1.43;;
86001;SDS011;76581;51.988;5.854;2024-03-25T00:58:54;13.00;;;1.20;;
86001;SDS011;76581;51.988;5.854;2024-03-25T00:59:57;12.68;;;1.77;;
86001;SDS011;76581;51.988;5.854;2024-03-25T01:00:57;17.20;;;1.40;;
86001;SDS011;76581;51.988;5.854;2024-03-25T01:01:58;18.40;;;1.33;;
86001;SDS011;76581;51.988;5.854;2024-03-25T01:02:58;10.00;;;1.50;;
86001;SDS011;76581;51.988;5.854;2024-03-25T01:03:59;10.88;;;1.33;;
86001;SDS011;76581;51.988;5.854;2024-03-25T01:04:59;15.27;;;1.30;;
86001;SDS011;76581;51.988;5.854;2024-03-25T01:06:00;14.32;;;1.50;;
86001;SDS011;76581;51.988;5.854;2024-03-25T01:07:00;9.63;;;1.23;;
86001;SDS011;76581;51.988;5.854;2024-03-25T01:08:01;14.15;;;1.90;;
86001;SDS011;76581;51.988;5.854;2024-03-25T01:09:01;9.90;;;1.30;;
86001;SDS011;76581;51.988;5.854;2024-03-25T01:10:04;15.43;;;1.40;;
86001;SDS011;76581;51.988;5.854;2024-03-25T01:11:04;8.70;;;1.70;;
86001;SDS011;76581;51.988;5.854;2024-03-25T01:12:06;16.33;;;1.50;;
86001;SDS011;76581;51.988;5.854;2024-03-25T01:13:06;11.80;;;1.52;;
86001;SDS011;76581;51.988;5.854;2024-03-25T01:14:07;9.77;;;1.17;;
86001;SDS011;76581;51.988;5.854;2024-03-25T01:15:07;13.20;;;1.02;;
86001;SDS011;76581;51.988;5.854;2024-03-25T01:16:10;9.07;;;1.80;;
86001;SDS011;76581;51.988;5.854;2024-03-25T01:17:11;15.98;;;1.45;;
86001;SDS011;76581;51.988;5.854;2024-03-25T01:18:12;7.13;;;1.05;;
86001;SDS011;76581;51.988;5.854;2024-03-25T01:19:13;15.33;;;1.53;;
86001;SDS011;76581;51.988;5.854;2024-03-25T01:20:13;16.08;;;1.45;;
86001;SDS011;76581;51.988;5.854;2024-03-25T01:21:14;11.27;;;1.90;;
86001;SDS011;76581;51.988;5.854;2024-03-25T01:22:15;17.23;;;1.67;;
86001;SDS011;76581;51.988;5.854;2024-03-25T01:23:15;16.17;;;1.20;;
86001;SDS011;76581;51.988;5.854;2024-03-25T01:24:16;17.10;;;1.42;;
86001;SDS011;76581;51.988;5.854;2024-03-25T01:25:16;12.23;;;1.57;;
86001;SDS011;76581;51.988;5.854;2024-03-25T01:26:17;15.32;;;1.50;;
86001;SDS011;76581;51.988;5.854;2024-03-25T01:27:17;13.03;;;2.00;;
86001;SDS011;76581;51.988;5.854;2024-03-25T01:28:18;11.75;;;1.67;;
86001;SDS011;76581;51.988;5.854;2024-03-25T01:29:19;19.10;;;1.60;;
86001;SDS011;76581;51.988;5.854;2024-03-25T01:30:19;14.38;;;2.40;;
86001;SDS011;76581;51.988;5.854;2024-03-25T01:31:20;17.50;;;1.40;;
86001;SDS011;76581;51.988;5.854;2024-03-25T01:32:20;11.93;;;1.30;;
86001;SDS011;76581;51.988;5.854;2024-03-25T01:33:21;15.13;;;1.45;;
86001;SDS011;76581;51.988;5.854;2024-03-25T01:34:21;16.40;;;1.50;;
86001;SDS011;76581;51.988;5.854;2024-03-25T01:35:22;11.80;;;1.60;;
86001;SDS011;76581;51.988;5.854;2024-03-25T01:36:22;9.77;;;1.47;;
86001;SDS011;76581;51.988;5.854;2024-03-25T01:37:23;9.35;;;1.70;;
86001;SDS011;76581;51.988;5.854;2024-03-25T01:38:23;13.27;;;2.30;;
86001;SDS011;76581;51.988;5.854;2024-03-25T01:39:24;19.87;;;1.73;;
86001;SDS011;76581;51.988;5.854;2024-03-25T01:40:24;12.73;;;1.30;;
86001;SDS011;76581;51.988;5.854;2024-03-25T01:41:25;15.73;;;1.67;;
86001;SDS011;76581;51.988;5.854;2024-03-25T01:42:26;17.40;;;1.75;;
86001;SDS011;76581;51.988;5.854;2024-03-25T01:43:27;12.52;;;1.70;;
86001;SDS011;76581;51.988;5.854;2024-03-25T01:44:27;13.07;;;1.63;;
86001;SDS011;76581;51.988;5.854;2024-03-25T01:45:31;15.10;;;2.03;;
86001;SDS011;76581;51.988;5.854;2024-03-25T01:46:33;17.25;;;2.10;;
86001;SDS011;76581;51.988;5.854;2024-03-25T01:47:34;9.45;;;1.83;;
86001;SDS011;76581;51.988;5.854;2024-03-25T01:48:35;19.13;;;2.27;;
86001;SDS011;76581;51.988;5.854;2024-03-25T01:49:36;10.88;;;1.30;;
86001;SDS011;76581;51.988;5.854;2024-03-25T01:50:37;13.50;;;1.95;;
86001;SDS011;76581;51.988;5.854;2024-03-25T01:51:42;16.15;;;1.65;;
86001;SDS011;76581;51.988;5.854;2024-03-25T01:52:43;16.63;;;2.35;;
86001;SDS011;76581;51.988;5.854;2024-03-25T01:53:44;11.75;;;1.70;;
86001;SDS011;76581;51.988;5.854;2024-03-25T01:54:45;13.82;;;2.00;;
86001;SDS011;76581;51.988;5.854;2024-03-25T01:55:46;18.73;;;2.58;;
86001;SDS011;76581;51.988;5.854;2024-03-25T01:56:48;13.25;;;1.60;;
86001;SDS011;76581;51.988;5.854;2024-03-25T01:57:49;15.73;;;1.88;;
86001;SDS011;76581;51.988;5.854;2024-03-25T01:58:50;13.93;;;1.67;;
86001;SDS011;76581;51.988;5.854;2024-03-25T01:59:51;12.15;;;1.55;;
86001;SDS011;76581;51.988;5.854;2024-03-25T02:00:52;13.77;;;1.87;;
86001;SDS011;76581;51.988;5.854;2024-03-25T02:01:54;18.85;;;1.67;;
86001;SDS011;76581;51.988;5.854;2024-03-25T02:02:56;15.35;;;1.73;;
86001;SDS011;76581;51.988;5.854;2024-03-25T02:03:57;13.02;;;1.52;;
86001;SDS011;76581;51.988;5.854;2024-03-25T02:04:58;12.37;;;1.70;;
86001;SDS011;76581;51.988;5.854;2024-03-25T02:05:59;14.07;;;1.75;;
86001;SDS011;76581;51.988;5.854;2024-03-25T02:07:05;21.50;;;2.40;;
86001;SDS011;76581;51.988;5.854;2024-03-25T02:08:07;19.90;;;1.50;;
86001;SDS011;76581;51.988;5.854;2024-03-25T02:09:09;14.80;;;1.98;;
86001;SDS011;76581;51.988;5.854;2024-03-25T02:10:12;15.05;;;1.42;;
86001;SDS011;76581;51.988;5.854;2024-03-25T02:11:16;12.30;;;1.70;;
86001;SDS011;76581;51.988;5.854;2024-03-25T02:12:18;16.67;;;2.17;;
86001;SDS011;76581;51.988;5.854;2024-03-25T02:13:19;11.50;;;1.77;;
86001;SDS011;76581;51.988;5.854;2024-03-25T02:14:19;12.70;;;2.13;;
86001;SDS011;76581;51.988;5.854;2024-03-25T02:15:20;15.77;;;1.88;;
86001;SDS011;76581;51.988;5.854;2024-03-25T02:16:21;16.13;;;1.70;;
86001;SDS011;76581;51.988;5.854;2024-03-25T02:17:22;18.52;;;2.13;;
86001;SDS011;76581;51.988;5.854;2024-03-25T02:18:22;20.10;;;1.93;;
86001;SDS011;76581;51.988;5.854;2024-03-25T02:19:23;20.25;;;1.67;;
86001;SDS011;76581;51.988;5.854;2024-03-25T02:20:24;15.00;;;2.15;;
86001;SDS011;76581;51.988;5.854;2024-03-25T02:21:26;21.73;;;2.13;;
86001;SDS011;76581;51.988;5.854;2024-03-25T02:22:26;13.00;;;1.90;;
86001;SDS011;76581;51.988;5.854;2024-03-25T02:23:27;12.13;;;1.40;;
86001;SDS011;76581;51.988;5.854;2024-03-25T02:24:28;12.95;;;1.55;;
86001;SDS011;76581;51.988;5.854;2024-03-25T02:25:31;13.40;;;1.80;;
86001;SDS011;76581;51.988;5.854;2024-03-25T02:26:33;16.52;;;1.88;;
86001;SDS011;76581;51.988;5.854;2024-03-25T02:27:34;17.23;;;2.75;;
86001;SDS011;76581;51.988;5.854;2024-03-25T02:28:38;11.88;;;1.48;;
86001;SDS011;76581;51.988;5.854;2024-03-25T02:29:38;15.53;;;1.80;;
86001;SDS011;76581;51.988;5.854;2024-03-25T02:30:39;18.43;;;2.13;;
86001;SDS011;76581;51.988;5.854;2024-03-25T02:31:40;17.52;;;2.25;;
86001;SDS011;76581;51.988;5.854;2024-03-25T02:32:41;23.15;;;3.20;;
86001;SDS011;76581;51.988;5.854;2024-03-25T02:33:41;14.70;;;1.40;;
86001;SDS011;76581;51.988;5.854;2024-03-25T02:34:47;17.02;;;2.05;;
86001;SDS011;76581;51.988;5.854;2024-03-25T02:35:49;17.70;;;1.50;;
86001;SDS011;76581;51.988;5.854;2024-03-25T02:36:50;12.57;;;1.60;;
86001;SDS011;76581;51.988;5.854;2024-03-25T02:37:51;15.00;;;1.60;;
86001;SDS011;76581;51.988;5.854;2024-03-25T02:38:53;11.27;;;1.45;;
86001;SDS011;76581;51.988;5.854;2024-03-25T02:39:54;17.57;;;2.17;;
86001;SDS011;76581;51.988;5.854;2024-03-25T02:40:57;17.73;;;2.33;;
86001;SDS011;76581;51.988;5.854;2024-03-25T02:41:57;18.65;;;1.70;;
86001;SDS011;76581;51.988;5.854;2024-03-25T02:42:58;15.93;;;2.27;;
86001;SDS011;76581;51.988;5.854;2024-03-25T02:43:59;12.23;;;2.10;;
86001;SDS011;76581;51.988;5.854;2024-03-25T02:45:00;19.53;;;2.30;;
86001;SDS011;76581;51.988;5.854;2024-03-25T02:46:01;12.88;;;1.50;;
86001;SDS011;76581;51.988;5.854;2024-03-25T02:47:02;12.40;;;2.72;;
86001;SDS011;76581;51.988;5.854;2024-03-25T02:48:04;17.50;;;1.70;;
86001;SDS011;76581;51.988;5.854;2024-03-25T02:49:05;13.23;;;1.55;;
86001;SDS011;76581;51.988;5.854;2024-03-25T02:50:05;18.30;;;1.90;;
86001;SDS011;76581;51.988;5.854;2024-03-25T02:51:06;14.57;;;1.80;;
86001;SDS011;76581;51.988;5.854;2024-03-25T02:52:07;19.23;;;1.85;;
86001;SDS011;76581;51.988;5.854;2024-03-25T02:53:07;15.70;;;2.33;;
86001;SDS011;76581;51.988;5.854;2024-03-25T02:54:08;17.15;;;2.28;;
86001;SDS011;76581;51.988;5.854;2024-03-25T02:55:08;18.60;;;3.13;;
86001;SDS011;76581;51.988;5.854;2024-03-25T02:56:09;14.45;;;1.40;;
86001;SDS011;76581;51.988;5.854;2024-03-25T02:57:10;17.63;;;2.40;;
86001;SDS011;76581;51.988;5.854;2024-03-25T02:58:10;12.90;;;1.30;;
86001;SDS011;76581;51.988;5.854;2024-03-25T02:59:11;15.00;;;1.35;;
86001;SDS011;76581;51.988;5.854;2024-03-25T03:00:12;20.45;;;2.83;;
86001;SDS011;76581;51.988;5.854;2024-03-25T03:01:15;15.40;;;2.27;;
86001;SDS011;76581;51.988;5.854;2024-03-25T03:02:16;14.02;;;1.80;;
86001;SDS011;76581;51.988;5.854;2024-03-25T03:03:16;24.30;;;2.05;;
86001;SDS011;76581;51.988;5.854;2024-03-25T03:04:17;17.63;;;1.73;;
86001;SDS011;76581;51.988;5.854;2024-03-25T03:05:18;20.15;;;1.52;;
86001;SDS011;76581;51.988;5.854;2024-03-25T03:06:18;14.80;;;2.87;;
86001;SDS011;76581;51.988;5.854;2024-03-25T03:07:19;9.88;;;2.15;;
86001;SDS011;76581;51.988;5.854;2024-03-25T03:08:19;13.37;;;1.57;;
86001;SDS011;76581;51.988;5.854;2024-03-25T03:09:20;15.70;;;2.22;;
86001;SDS011;76581;51.988;5.854;2024-03-25T03:10:20;14.73;;;1.63;;
86001;SDS011;76581;51.988;5.854;2024-03-25T03:11:21;11.90;;;2.00;;
86001;SDS011;76581;51.988;5.854;2024-03-25T03:12:22;10.77;;;1.70;;
86001;SDS011;76581;51.988;5.854;2024-03-25T03:13:22;18.43;;;1.83;;
86001;SDS011;76581;51.988;5.854;2024-03-25T03:14:23;18.13;;;2.47;;
86001;SDS011;76581;51.988;5.854;2024-03-25T03:15:23;15.30;;;1.87;;
86001;SDS011;76581;51.988;5.854;2024-03-25T03:16:24;14.65;;;2.08;;
86001;SDS011;76581;51.988;5.854;2024-03-25T03:17:24;14.97;;;1.80;;
86001;SDS011;76581;51.988;5.854;2024-03-25T03:18:25;10.67;;;2.00;;
86001;SDS011;76581;51.988;5.854;2024-03-25T03:19:25;17.30;;;2.50;;
86001;SDS011;76581;51.988;5.854;2024-03-25T03:20:26;12.70;;;1.67;;
86001;SDS011;76581;51.988;5.854;2024-03-25T03:21:27;10.80;;;1.80;;
86001;SDS011;76581;51.988;5.854;2024-03-25T03:22:28;16.58;;;2.15;;
86001;SDS011;76581;51.988;5.854;2024-03-25T03:23:28;18.83;;;1.70;;
86001;SDS011;76581;51.988;5.854;2024-03-25T03:24:29;15.10;;;1.73;;
86001;SDS011;76581;51.988;5.854;2024-03-25T03:25:29;18.27;;;1.80;;
86001;SDS011;76581;51.988;5.854;2024-03-25T03:26:31;18.48;;;2.65;;
86001;SDS011;76581;51.988;5.854;2024-03-25T03:27:31;11.90;;;1.20;;
86001;SDS011;76581;51.988;5.854;2024-03-25T03:28:32;12.85;;;1.70;;
86001;SDS011;76581;51.988;5.854;2024-03-25T03:29:32;15.73;;;1.80;;
86001;SDS011;76581;51.988;5.854;2024-03-25T03:30:33;12.93;;;2.17;;
86001;SDS011;76581;51.988;5.854;2024-03-25T03:31:33;13.85;;;2.05;;
86001;SDS011;76581;51.988;5.854;2024-03-25T03:32:34;14.83;;;1.63;;
86001;SDS011;76581;51.988;5.854;2024-03-25T03:33:34;11.52;;;2.03;;
86001;SDS011;76581;51.988;5.854;2024-03-25T03:34:35;19.93;;;2.20;;
86001;SDS011;76581;51.988;5.854;2024-03-25T03:35:35;14.80;;;1.95;;
86001;SDS011;76581;51.988;5.854;2024-03-25T03:36:36;15.20;;;1.83;;
86001;SDS011;76581;51.988;5.854;2024-03-25T03:37:36;14.27;;;1.92;;
86001;SDS011;76581;51.988;5.854;2024-03-25T03:38:37;15.87;;;2.27;;
86001;SDS011;76581;51.988;5.854;2024-03-25T03:39:37;13.60;;;1.63;;
86001;SDS011;76581;51.988;5.854;2024-03-25T03:40:38;16.77;;;1.92;;
86001;SDS011;76581;51.988;5.854;2024-03-25T03:41:39;16.70;;;1.87;;
86001;SDS011;76581;51.988;5.854;2024-03-25T03:42:39;15.23;;;1.98;;
86001;SDS011;76581;51.988;5.854;2024-03-25T03:43:40;13.60;;;1.53;;
86001;SDS011;76581;51.988;5.854;2024-03-25T03:44:40;12.33;;;1.97;;
86001;SDS011;76581;51.988;5.854;2024-03-25T03:45:41;10.57;;;1.58;;
86001;SDS011;76581;51.988;5.854;2024-03-25T03:46:41;18.90;;;2.30;;
86001;SDS011;76581;51.988;5.854;2024-03-25T03:47:42;15.93;;;1.92;;
86001;SDS011;76581;51.988;5.854;2024-03-25T03:48:42;10.33;;;1.90;;
86001;SDS011;76581;51.988;5.854;2024-03-25T03:49:43;19.23;;;3.37;;
86001;SDS011;76581;51.988;5.854;2024-03-25T03:50:43;18.38;;;2.40;;
86001;SDS011;76581;51.988;5.854;2024-03-25T03:51:44;10.98;;;1.77;;
86001;SDS011;76581;51.988;5.854;2024-03-25T03:52:45;11.43;;;1.93;;
86001;SDS011;76581;51.988;5.854;2024-03-25T03:53:45;14.70;;;1.93;;
86001;SDS011;76581;51.988;5.854;2024-03-25T03:54:46;11.57;;;1.50;;
86001;SDS011;76581;51.988;5.854;2024-03-25T03:55:53;14.27;;;1.20;;
86001;SDS011;76581;51.988;5.854;2024-03-25T03:56:54;15.38;;;2.45;;
86001;SDS011;76581;51.988;5.854;2024-03-25T03:57:55;10.83;;;1.60;;
86001;SDS011;76581;51.988;5.854;2024-03-25T03:58:55;14.73;;;2.08;;
86001;SDS011;76581;51.988;5.854;2024-03-25T03:59:56;14.90;;;2.23;;
86001;SDS011;76581;51.988;5.854;2024-03-25T04:00:56;8.55;;;1.20;;
86001;SDS011;76581;51.988;5.854;2024-03-25T04:01:57;12.40;;;2.70;;
86001;SDS011;76581;51.988;5.854;2024-03-25T04:02:58;14.55;;;2.38;;
86001;SDS011;76581;51.988;5.854;2024-03-25T04:03:58;11.87;;;1.73;;
86001;SDS011;76581;51.988;5.854;2024-03-25T04:04:59;22.80;;;2.72;;
86001;SDS011;76581;51.988;5.854;2024-03-25T04:06:06;14.73;;;2.10;;
86001;SDS011;76581;51.988;5.854;2024-03-25T04:07:08;11.88;;;2.10;;
86001;SDS011;76581;51.988;5.854;2024-03-25T04:08:08;13.02;;;2.40;;
86001;SDS011;76581;51.988;5.854;2024-03-25T04:09:09;14.77;;;1.73;;
86001;SDS011;76581;51.988;5.854;2024-03-25T04:10:10;7.53;;;1.37;;
86001;SDS011;76581;51.988;5.854;2024-03-25T04:11:10;15.10;;;2.47;;
86001;SDS011;76581;51.988;5.854;2024-03-25T04:12:11;15.87;;;1.70;;
86001;SDS011;76581;51.988;5.854;2024-03-25T04:13:11;15.40;;;1.90;;
86001;SDS011;76581;51.988;5.854;2024-03-25T04:14:12;11.18;;;1.60;;
86001;SDS011;76581;51.988;5.854;2024-03-25T04:15:13;9.65;;;1.38;;
86001;SDS011;76581;51.988;5.854;2024-03-25T04:16:17;13.80;;;2.90;;
86001;SDS011;76581;51.988;5.854;2024-03-25T04:17:18;12.50;;;1.60;;
86001;SDS011;76581;51.988;5.854;2024-03-25T04:18:18;11.20;;;1.90;;
86001;SDS011;76581;51.988;5.854;2024-03-25T04:19:19;10.98;;;1.15;;
86001;SDS011;76581;51.988;5.854;2024-03-25T04:20:23;13.27;;;2.25;;
86001;SDS011;76581;51.988;5.854;2024-03-25T04:21:24;11.00;;;2.10;;
86001;SDS011;76581;51.988;5.854;2024-03-25T04:22:24;10.07;;;2.23;;
86001;SDS011;76581;51.988;5.854;2024-03-25T04:23:25;16.75;;;2.20;;
86001;SDS011;76581;51.988;5.854;2024-03-25T04:24:26;11.07;;;1.45;;
86001;SDS011;76581;51.988;5.854;2024-03-25T04:25:27;12.90;;;2.00;;
86001;SDS011;76581;51.988;5.854;2024-03-25T04:26:27;14.00;;;1.65;;
86001;SDS011;76581;51.988;5.854;2024-03-25T04:27:28;10.83;;;1.40;;
86001;SDS011;76581;51.988;5.854;2024-03-25T04:28:28;14.55;;;2.10;;
86001;SDS011;76581;51.988;5.854;2024-03-25T04:29:29;10.77;;;1.77;;
86001;SDS011;76581;51.988;5.854;2024-03-25T04:30:29;17.53;;;1.87;;
86001;SDS011;76581;51.988;5.854;2024-03-25T04:31:30;16.70;;;2.10;;
86001;SDS011;76581;51.988;5.854;2024-03-25T04:32:30;11.53;;;2.50;;
86001;SDS011;76581;51.988;5.854;2024-03-25T04:33:31;16.25;;;2.92;;
86001;SDS011;76581;51.988;5.854;2024-03-25T04:34:31;15.90;;;1.77;;
86001;SDS011;76581;51.988;5.854;2024-03-25T04:35:32;15.43;;;2.00;;
86001;SDS011;76581;51.988;5.854;2024-03-25T04:36:32;16.30;;;2.28;;
86001;SDS011;76581;51.988;5.854;2024-03-25T04:37:33;10.87;;;2.13;;
86001;SDS011;76581;51.988;5.854;2024-03-25T04:38:35;15.85;;;2.10;;
86001;SDS011;76581;51.988;5.854;2024-03-25T04:39:35;14.10;;;2.03;;
86001;SDS011;76581;51.988;5.854;2024-03-25T04:40:36;13.77;;;1.85;;
86001;SDS011;76581;51.988;5.854;2024-03-25T04:41:36;10.17;;;1.93;;
86001;SDS011;76581;51.988;5.854;2024-03-25T04:42:37;18.02;;;2.28;;
86001;SDS011;76581;51.988;5.854;2024-03-25T04:43:37;12.63;;;2.17;;
86001;SDS011;76581;51.988;5.854;2024-03-25T04:44:38;12.75;;;1.83;;
86001;SDS011;76581;51.988;5.854;2024-03-25T04:45:38;15.20;;;2.00;;
86001;SDS011;76581;51.988;5.854;2024-03-25T04:46:39;20.30;;;2.83;;
86001;SDS011;76581;51.988;5.854;2024-03-25T04:47:40;13.13;;;1.77;;
86001;SDS011;76581;51.988;5.854;2024-03-25T04:48:40;20.98;;;2.70;;
86001;SDS011;76581;51.988;5.854;2024-03-25T04:49:41;17.97;;;2.43;;
86001;SDS011;76581;51.988;5.854;2024-03-25T04:50:41;14.95;;;3.13;;
86001;SDS011;76581;51.988;5.854;2024-03-25T04:51:42;11.90;;;2.40;;
86001;SDS011;76581;51.988;5.854;2024-03-25T04:52:43;14.73;;;2.77;;
86001;SDS011;76581;51.988;5.854;2024-03-25T04:53:43;15.02;;;2.03;;
86001;SDS011;76581;51.988;5.854;2024-03-25T04:54:44;13.33;;;2.63;;
86001;SDS011;76581;51.988;5.854;2024-03-25T04:55:44;16.45;;;2.28;;
86001;SDS011;76581;51.988;5.854;2024-03-25T04:56:45;17.97;;;2.10;;
86001;SDS011;76581;51.988;5.854;2024-03-25T04:57:47;18.02;;;2.45;;
86001;SDS011;76581;51.988;5.854;2024-03-25T04:58:47;14.23;;;2.37;;
86001;SDS011;76581;51.988;5.854;2024-03-25T04:59:48;15.30;;;2.10;;
86001;SDS011;76581;51.988;5.854;2024-03-25T05:00:48;15.20;;;2.57;;
86001;SDS011;76581;51.988;5.854;2024-03-25T05:01:49;14.13;;;2.92;;
86001;SDS011;76581;51.988;5.854;2024-03-25T05:02:49;13.00;;;2.43;;
86001;SDS011;76581;51.988;5.854;2024-03-25T05:03:50;13.93;;;2.30;;
86001;SDS011;76581;51.988;5.854;2024-03-25T05:04:50;15.73;;;3.08;;
86001;SDS011;76581;51.988;5.854;2024-03-25T05:05:52;14.93;;;2.17;;
86001;SDS011;76581;51.988;5.854;2024-03-25T05:06:52;17.73;;;2.03;;
86001;SDS011;76581;51.988;5.854;2024-03-25T05:07:53;13.70;;;2.80;;
86001;SDS011;76581;51.988;5.854;2024-03-25T05:08:54;12.38;;;2.70;;
86001;SDS011;76581;51.988;5.854;2024-03-25T05:09:54;15.40;;;2.53;;
86001;SDS011;76581;51.988;5.854;2024-03-25T05:10:56;13.25;;;2.42;;
86001;SDS011;76581;51.988;5.854;2024-03-25T05:11:56;13.27;;;2.78;;
86001;SDS011;76581;51.988;5.854;2024-03-25T05:12:57;12.30;;;2.37;;
86001;SDS011;76581;51.988;5.854;2024-03-25T05:13:57;13.02;;;2.15;;
86001;SDS011;76581;51.988;5.854;2024-03-25T05:14:58;18.10;;;3.00;;
86001;SDS011;76581;51.988;5.854;2024-03-25T05:15:58;11.43;;;2.40;;
86001;SDS011;76581;51.988;5.854;2024-03-25T05:16:59;13.33;;;2.53;;
86001;SDS011;76581;51.988;5.854;2024-03-25T05:18:01;15.68;;;3.05;;
86001;SDS011;76581;51.988;5.854;2024-03-25T05:19:02;16.25;;;2.67;;
86001;SDS011;76581;51.988;5.854;2024-03-25T05:20:04;19.53;;;2.87;;
86001;SDS011;76581;51.988;5.854;2024-03-25T05:21:05;19.15;;;2.95;;
86001;SDS011;76581;51.988;5.854;2024-03-25T05:22:05;21.23;;;3.13;;
86001;SDS011;76581;51.988;5.854;2024-03-25T05:23:06;16.93;;;3.03;;
86001;SDS011;76581;51.988;5.854;2024-03-25T05:24:07;15.88;;;2.67;;
86001;SDS011;76581;51.988;5.854;2024-03-25T05:25:07;12.27;;;2.77;;
86001;SDS011;76581;51.988;5.854;2024-03-25T05:26:08;14.70;;;3.08;;
86001;SDS011;76581;51.988;5.854;2024-03-25T05:27:08;16.17;;;3.17;;
86001;SDS011;76581;51.988;5.854;2024-03-25T05:28:09;16.25;;;2.90;;
86001;SDS011;76581;51.988;5.854;2024-03-25T05:29:10;12.77;;;3.07;;
86001;SDS011;76581;51.988;5.854;2024-03-25T05:30:10;17.03;;;3.20;;
86001;SDS011;76581;51.988;5.854;2024-03-25T05:31:11;11.77;;;2.60;;
86001;SDS011;76581;51.988;5.854;2024-03-25T05:32:12;18.27;;;3.50;;
86001;SDS011;76581;51.988;5.854;2024-03-25T05:33:13;16.83;;;3.27;;
86001;SDS011;76581;51.988;5.854;2024-03-25T05:34:13;17.00;;;2.92;;
86001;SDS011;76581;51.988;5.854;2024-03-25T05:35:14;26.17;;;5.87;;
86001;SDS011;76581;51.988;5.854;2024-03-25T05:36:14;18.88;;;3.53;;
86001;SDS011;76581;51.988;5.854;2024-03-25T05:37:15;18.97;;;3.70;;
86001;SDS011;76581;51.988;5.854;2024-03-25T05:38:15;16.83;;;3.72;;
86001;SDS011;76581;51.988;5.854;2024-03-25T05:39:16;19.07;;;3.87;;
86001;SDS011;76581;51.988;5.854;2024-03-25T05:40:16;14.53;;;3.67;;
86001;SDS011;76581;51.988;5.854;2024-03-25T05:41:17;14.80;;;3.72;;
86001;SDS011;76581;51.988;5.854;2024-03-25T05:42:17;15.23;;;3.30;;
86001;SDS011;76581;51.988;5.854;2024-03-25T05:43:18;20.55;;;3.58;;
86001;SDS011;76581;51.988;5.854;2024-03-25T05:44:20;16.90;;;3.90;;
86001;SDS011;76581;51.988;5.854;2024-03-25T05:45:21;13.73;;;3.10;;
86001;SDS011;76581;51.988;5.854;2024-03-25T05:46:22;19.52;;;3.72;;
86001;SDS011;76581;51.988;5.854;2024-03-25T05:47:22;15.87;;;3.97;;
86001;SDS011;76581;51.988;5.854;2024-03-25T05:48:26;19.63;;;3.70;;
86001;SDS011;76581;51.988;5.854;2024-03-25T05:49:27;17.95;;;3.95;;
86001;SDS011;76581;51.988;5.854;2024-03-25T05:50:27;16.17;;;3.85;;
86001;SDS011;76581;51.988;5.854;2024-03-25T05:51:28;16.93;;;3.67;;
86001;SDS011;76581;51.988;5.854;2024-03-25T05:52:29;20.73;;;3.80;;
86001;SDS011;76581;51.988;5.854;2024-03-25T05:53:29;20.87;;;3.83;;
86001;SDS011;76581;51.988;5.854;2024-03-25T05:54:30;18.17;;;3.53;;
86001;SDS011;76581;51.988;5.854;2024-03-25T05:55:31;15.07;;;4.33;;
86001;SDS011;76581;51.988;5.854;2024-03-25T05:56:31;21.55;;;4.43;;
86001;SDS011;76581;51.988;5.854;2024-03-25T05:57:32;23.00;;;4.17;;
86001;SDS011;76581;51.988;5.854;2024-03-25T05:58:32;19.15;;;4.20;;
86001;SDS011;76581;51.988;5.854;2024-03-25T05:59:33;17.47;;;3.83;;
86001;SDS011;76581;51.988;5.854;2024-03-25T06:00:33;21.55;;;3.55;;
86001;SDS011;76581;51.988;5.854;2024-03-25T06:01:34;17.17;;;4.00;;